Time;durP1;ratioP1;P1;durP2;ratioP2;P2;SDS_P1;SDS_P2;PMS_P1;PMS_P2;Temp;Humidity;BMP_temperature;BMP_pressure;BME280_temperature;BME280_humidity;BME280_pressure;Samples;Min_cycle;Max_cycle;Signal;HPM_P1;HPM_P2
2023/04/22 00:00:07;;;;;;;11.43;8.07;;;15.10;99.90;;;;;;4996868;28;20487;-66
2023/04/22 00:02:35;;;;;;;9.83;7.17;;;15.10;99.90;;;;;;4998843;28;20243;-66
2023/04/22 00:05:02;;;;;;;7.20;6.50;;;15.10;99.90;;;;;;4996268;28;20502;-66
2023/04/22 00:07:28;;;;;;;7.20;5.93;;;15.00;99.90;;;;;;4995019;28;20451;-66
2023/04/22 00:09:53;;;;;;;7.47;6.77;;;15.00;99.90;;;;;;4994934;28;20448;-66
2023/04/22 00:12:19;;;;;;;20.53;16.03;;;15.00;99.90;;;;;;4986083;28;20275;-66
2023/04/22 00:14:44;;;;;;;20.80;15.87;;;15.00;99.90;;;;;;4990356;28;20193;-65
2023/04/22 00:17:10;;;;;;;13.73;11.03;;;15.00;99.90;;;;;;4992659;28;20189;-66
2023/04/22 00:19:36;;;;;;;13.40;9.70;;;15.00;99.90;;;;;;4993557;28;21303;-66
2023/04/22 00:22:02;;;;;;;8.07;7.00;;;15.00;99.90;;;;;;4993207;28;20491;-66
2023/04/22 00:24:28;;;;;;;11.60;8.13;;;14.90;99.90;;;;;;4994445;28;20539;-65
2023/04/22 00:26:54;;;;;;;7.47;6.23;;;14.90;99.90;;;;;;4992428;28;20879;-66
2023/04/22 00:29:20;;;;;;;7.93;7.13;;;14.90;99.90;;;;;;4997106;28;20468;-66
2023/04/22 00:31:45;;;;;;;6.80;5.73;;;14.90;99.90;;;;;;4994997;28;20208;-66
2023/04/22 00:34:11;;;;;;;6.37;5.30;;;14.90;99.90;;;;;;4994000;28;20244;-65
2023/04/22 00:36:37;;;;;;;6.37;5.77;;;14.90;99.90;;;;;;4996062;28;20190;-65
2023/04/22 00:39:02;;;;;;;6.97;5.63;;;14.90;99.90;;;;;;4992370;28;20725;-65
2023/04/22 00:41:29;;;;;;;7.23;5.93;;;14.90;99.90;;;;;;4994942;28;20219;-65
2023/04/22 00:43:56;;;;;;;6.50;5.77;;;14.90;99.90;;;;;;5001686;28;20639;-65
2023/04/22 00:46:22;;;;;;;6.00;5.07;;;14.90;99.90;;;;;;4996352;28;20458;-65
2023/04/22 00:48:48;;;;;;;9.80;5.30;;;14.90;99.90;;;;;;4998878;28;20483;-65
2023/04/22 00:51:14;;;;;;;8.63;5.17;;;14.80;99.90;;;;;;5000445;28;20464;-65
2023/04/22 00:53:39;;;;;;;5.30;4.80;;;14.80;99.90;;;;;;4998842;28;20515;-65
2023/04/22 00:56:05;;;;;;;6.10;5.50;;;14.80;99.90;;;;;;5001773;28;20288;-65
2023/04/22 00:58:32;;;;;;;7.30;5.30;;;14.80;99.90;;;;;;5003508;28;20645;-66
2023/04/22 01:00:58;;;;;;;5.40;4.83;;;14.80;99.90;;;;;;5002635;28;20502;-65
2023/04/22 01:03:25;;;;;;;5.83;4.67;;;14.80;99.90;;;;;;5002437;28;20483;-65
2023/04/22 01:05:51;;;;;;;7.57;5.20;;;14.70;99.90;;;;;;5001822;28;20173;-65
2023/04/22 01:08:17;;;;;;;5.90;5.00;;;14.70;99.90;;;;;;5003017;28;20541;-65
2023/04/22 01:10:42;;;;;;;5.90;5.30;;;14.70;99.90;;;;;;4999597;28;20222;-65
2023/04/22 01:13:08;;;;;;;6.17;5.20;;;14.70;99.90;;;;;;5002450;28;20177;-65
2023/04/22 01:15:34;;;;;;;6.20;5.57;;;14.70;99.90;;;;;;5004890;28;20200;-65
2023/04/22 01:18:01;;;;;;;6.57;5.23;;;14.70;99.90;;;;;;5003842;28;20467;-65
2023/04/22 01:20:30;;;;;;;5.33;4.80;;;14.60;99.90;;;;;;5003179;28;20217;-65
2023/04/22 01:22:57;;;;;;;5.30;4.80;;;14.60;99.90;;;;;;5005550;28;20440;-65
2023/04/22 01:25:25;;;;;;;7.40;5.90;;;14.60;99.90;;;;;;5004143;28;20432;-65
2023/04/22 01:27:52;;;;;;;5.40;4.83;;;14.60;99.90;;;;;;5001981;28;20481;-65
2023/04/22 01:30:18;;;;;;;7.23;6.10;;;14.60;99.90;;;;;;5001828;28;20472;-65
2023/04/22 01:32:44;;;;;;;6.20;5.60;;;14.60;99.90;;;;;;4997046;28;20502;-65
2023/04/22 01:35:09;;;;;;;10.13;5.50;;;14.60;99.90;;;;;;4996662;28;20181;-65
2023/04/22 01:37:35;;;;;;;7.70;6.50;;;14.50;99.90;;;;;;4996408;28;20447;-65
2023/04/22 01:40:01;;;;;;;6.73;5.57;;;14.50;99.90;;;;;;4995509;28;20217;-65
2023/04/22 01:42:27;;;;;;;7.50;5.60;;;14.50;99.90;;;;;;5001979;28;20200;-65
2023/04/22 01:44:53;;;;;;;6.33;5.70;;;14.50;99.90;;;;;;5000522;28;20471;-65
2023/04/22 01:47:18;;;;;;;5.73;5.10;;;14.50;99.90;;;;;;5002954;28;20454;-65
2023/04/22 01:49:44;;;;;;;6.37;5.70;;;14.50;99.90;;;;;;5001221;28;20181;-65
2023/04/22 01:52:10;;;;;;;8.30;6.17;;;14.50;99.90;;;;;;4998236;28;20213;-65
2023/04/22 01:54:35;;;;;;;6.70;6.00;;;14.50;99.90;;;;;;5000212;28;20185;-65
2023/04/22 01:57:07;;;;;;;6.63;5.80;;;14.50;99.90;;;;;;4999463;28;21300;-65
2023/04/22 01:59:33;;;;;;;6.03;4.77;;;14.40;99.90;;;;;;4999495;28;20192;-65
2023/04/22 02:01:58;;;;;;;7.10;4.97;;;14.40;99.90;;;;;;4999335;28;20469;-66
2023/04/22 02:04:24;;;;;;;5.93;4.90;;;14.40;99.90;;;;;;5000385;28;20223;-66
2023/04/22 02:06:49;;;;;;;6.90;5.90;;;14.40;99.90;;;;;;4998441;28;20185;-65
2023/04/22 02:09:15;;;;;;;5.67;5.07;;;14.40;99.90;;;;;;4995024;28;20237;-65
2023/04/22 02:11:40;;;;;;;6.37;5.57;;;14.40;99.90;;;;;;5001410;28;20201;-65
2023/04/22 02:14:06;;;;;;;7.13;5.70;;;14.30;99.90;;;;;;5000748;28;20572;-65
2023/04/22 02:16:32;;;;;;;7.20;5.53;;;14.30;99.90;;;;;;5001004;28;20177;-66
2023/04/22 02:18:57;;;;;;;6.27;5.50;;;14.30;99.90;;;;;;5000858;28;20189;-65
2023/04/22 02:21:23;;;;;;;11.33;5.60;;;14.30;99.90;;;;;;4994501;28;20209;-65
2023/04/22 02:23:48;;;;;;;7.20;5.27;;;14.30;99.90;;;;;;5002358;28;20196;-65
2023/04/22 02:26:14;;;;;;;7.20;6.07;;;14.30;99.90;;;;;;5000107;28;20268;-65
2023/04/22 02:28:40;;;;;;;9.60;5.90;;;14.30;99.90;;;;;;5000457;28;20299;-65
2023/04/22 02:31:06;;;;;;;7.33;5.57;;;14.20;99.90;;;;;;5001067;28;20243;-65
2023/04/22 02:33:31;;;;;;;6.03;5.27;;;14.20;99.90;;;;;;5002236;28;20468;-65
2023/04/22 02:35:57;;;;;;;6.23;5.57;;;14.20;99.90;;;;;;5000251;28;20214;-65
2023/04/22 02:38:22;;;;;;;6.60;5.90;;;14.20;99.90;;;;;;4997390;28;20212;-65
2023/04/22 02:40:48;;;;;;;6.20;5.43;;;14.20;99.90;;;;;;4997600;28;20216;-65
2023/04/22 02:43:14;;;;;;;6.33;5.73;;;14.20;99.90;;;;;;4999283;28;20264;-65
2023/04/22 02:45:39;;;;;;;6.60;5.60;;;14.20;99.90;;;;;;4998910;28;20678;-66
2023/04/22 02:48:05;;;;;;;8.33;6.40;;;14.10;99.90;;;;;;5000290;28;20235;-66
2023/04/22 02:50:31;;;;;;;7.70;5.83;;;14.10;99.90;;;;;;5000271;28;20212;-66
2023/04/22 02:52:56;;;;;;;6.40;5.80;;;14.10;99.90;;;;;;4994650;28;21612;-65
2023/04/22 02:55:23;;;;;;;6.63;5.70;;;14.00;99.90;;;;;;4997991;28;20185;-65
2023/04/22 02:57:49;;;;;;;8.80;6.00;;;14.00;99.90;;;;;;4999249;28;20189;-66
2023/04/22 03:00:15;;;;;;;5.90;5.07;;;14.00;99.90;;;;;;4998109;28;20464;-65
2023/04/22 03:02:40;;;;;;;6.43;5.67;;;14.00;99.90;;;;;;5002018;28;20444;-65
2023/04/22 03:05:06;;;;;;;5.80;5.10;;;13.90;99.90;;;;;;5002097;28;20327;-65
2023/04/22 03:07:32;;;;;;;7.80;5.77;;;13.70;99.90;;;;;;5001701;28;20197;-65
2023/04/22 03:09:57;;;;;;;6.00;5.40;;;13.60;99.90;;;;;;5002776;28;20880;-65
2023/04/22 03:12:24;;;;;;;7.10;5.90;;;13.60;99.90;;;;;;5000247;28;20785;-65
2023/04/22 03:14:49;;;;;;;6.10;5.40;;;13.50;99.90;;;;;;5000322;28;20189;-65
2023/04/22 03:17:15;;;;;;;6.57;5.50;;;13.50;99.90;;;;;;5003089;28;20505;-65
2023/04/22 03:19:41;;;;;;;6.47;5.27;;;13.40;99.90;;;;;;4996198;28;20197;-65
2023/04/22 03:22:06;;;;;;;6.23;4.40;;;13.40;99.90;;;;;;5000220;28;20188;-65
2023/04/22 03:24:32;;;;;;;8.13;5.70;;;13.40;99.90;;;;;;5002973;28;20238;-65
2023/04/22 03:26:57;;;;;;;5.90;5.03;;;13.40;99.90;;;;;;5002503;28;20177;-65
2023/04/22 03:29:23;;;;;;;8.40;5.60;;;13.40;99.90;;;;;;4999228;28;20213;-65
2023/04/22 03:31:48;;;;;;;5.80;5.20;;;13.40;99.90;;;;;;5001645;28;21346;-65
2023/04/22 03:34:14;;;;;;;6.90;5.87;;;13.30;99.90;;;;;;4997722;28;21526;-65
2023/04/22 03:36:40;;;;;;;6.63;5.27;;;13.30;99.90;;;;;;5015901;28;20203;-65
2023/04/22 03:39:05;;;;;;;5.87;5.20;;;13.30;99.90;;;;;;5001824;28;20308;-65
2023/04/22 03:41:31;;;;;;;7.27;5.40;;;13.30;99.90;;;;;;5000284;28;20683;-65
2023/04/22 03:43:56;;;;;;;5.93;5.07;;;13.20;99.90;;;;;;4997985;28;20200;-65
2023/04/22 03:46:22;;;;;;;8.90;5.67;;;13.20;99.90;;;;;;4998208;28;20720;-66
2023/04/22 03:48:48;;;;;;;5.43;4.93;;;13.20;99.90;;;;;;5001363;28;20208;-65
2023/04/22 03:51:13;;;;;;;6.03;5.40;;;13.20;99.90;;;;;;4994308;28;20204;-65
2023/04/22 03:53:39;;;;;;;5.03;4.60;;;13.20;99.90;;;;;;4998869;28;20671;-65
2023/04/22 03:56:04;;;;;;;15.43;5.07;;;13.20;99.90;;;;;;4993608;28;20185;-65
2023/04/22 03:58:30;;;;;;;5.93;5.33;;;13.10;99.90;;;;;;4995578;28;20209;-65
2023/04/22 04:00:56;;;;;;;5.60;5.03;;;13.10;99.90;;;;;;5000214;28;20621;-65
2023/04/22 04:03:21;;;;;;;6.47;5.13;;;13.10;99.90;;;;;;5000170;28;20189;-65
2023/04/22 04:05:47;;;;;;;6.73;4.50;;;13.10;99.90;;;;;;4999342;28;20281;-65
2023/04/22 04:08:12;;;;;;;6.10;4.47;;;13.10;99.90;;;;;;4995738;28;20211;-65
2023/04/22 04:10:38;;;;;;;7.07;4.80;;;13.10;99.90;;;;;;5000351;28;20205;-66
2023/04/22 04:13:04;;;;;;;6.63;4.90;;;13.00;99.90;;;;;;4999830;28;20685;-65
2023/04/22 04:15:31;;;;;;;6.00;5.10;;;13.00;99.90;;;;;;5002122;28;20191;-65
2023/04/22 04:18:00;;;;;;;7.20;4.90;;;13.00;99.90;;;;;;5005640;28;20208;-66
2023/04/22 04:20:25;;;;;;;5.60;4.70;;;13.00;99.90;;;;;;5002645;28;21566;-66
2023/04/22 04:22:51;;;;;;;6.20;4.97;;;13.00;99.90;;;;;;4999559;28;20498;-66
2023/04/22 04:25:17;;;;;;;5.53;4.70;;;12.90;99.90;;;;;;5003443;28;20235;-66
2023/04/22 04:27:43;;;;;;;6.27;5.00;;;12.90;99.90;;;;;;5002259;28;20231;-65
2023/04/22 04:30:09;;;;;;;6.50;4.80;;;12.90;99.90;;;;;;4999800;28;20474;-65
2023/04/22 04:32:34;;;;;;;7.57;5.27;;;12.90;99.90;;;;;;5002309;28;20177;-66
2023/04/22 04:35:00;;;;;;;5.70;5.10;;;12.90;99.90;;;;;;5004963;28;20488;-65
2023/04/22 04:37:26;;;;;;;6.20;4.67;;;12.90;99.90;;;;;;5001485;28;20188;-65
2023/04/22 04:39:52;;;;;;;6.33;4.60;;;12.80;99.90;;;;;;5019023;28;20542;-65
2023/04/22 04:42:19;;;;;;;7.20;4.80;;;12.80;99.90;;;;;;5004518;28;20232;-65
2023/04/22 04:44:46;;;;;;;5.77;4.87;;;12.80;99.90;;;;;;4998920;28;20788;-65
2023/04/22 04:47:11;;;;;;;5.93;5.30;;;12.80;99.90;;;;;;5002331;28;20436;-65
2023/04/22 04:49:39;;;;;;;5.60;5.10;;;12.80;99.90;;;;;;4997076;28;21129;-65
2023/04/22 04:52:06;;;;;;;4.83;4.33;;;12.80;99.90;;;;;;5002166;28;20200;-65
2023/04/22 04:54:32;;;;;;;6.00;5.40;;;12.80;99.90;;;;;;5001938;28;20785;-65
2023/04/22 04:56:57;;;;;;;8.37;5.33;;;12.80;99.90;;;;;;5001222;28;20432;-65
2023/04/22 04:59:23;;;;;;;6.17;4.80;;;12.80;99.90;;;;;;5002117;28;20204;-65
2023/04/22 05:01:49;;;;;;;5.33;4.83;;;12.80;99.90;;;;;;5002786;28;20209;-65
2023/04/22 05:04:14;;;;;;;5.07;4.57;;;12.80;99.90;;;;;;5001460;28;20185;-65
2023/04/22 05:06:40;;;;;;;7.20;4.80;;;12.70;99.90;;;;;;5000676;28;20450;-65
2023/04/22 05:09:06;;;;;;;10.00;5.20;;;12.70;99.90;;;;;;5002639;28;20216;-65
2023/04/22 05:11:32;;;;;;;5.63;5.03;;;12.70;99.90;;;;;;5000036;28;20205;-65
2023/04/22 05:13:57;;;;;;;5.87;4.67;;;12.70;99.90;;;;;;5003338;28;20467;-65
2023/04/22 05:16:23;;;;;;;5.60;4.93;;;12.80;99.90;;;;;;5001007;28;20597;-65
2023/04/22 05:18:48;;;;;;;7.33;4.97;;;12.70;99.90;;;;;;5001333;28;20193;-65
2023/04/22 05:21:15;;;;;;;5.80;4.90;;;12.70;99.90;;;;;;5000651;28;20213;-66
2023/04/22 05:23:41;;;;;;;6.17;5.57;;;12.70;99.90;;;;;;5001367;28;20182;-65
2023/04/22 05:26:06;;;;;;;9.10;5.50;;;12.70;99.90;;;;;;5001003;28;20513;-65
2023/04/22 05:28:32;;;;;;;7.57;5.17;;;12.70;99.90;;;;;;5001125;28;20554;-65
2023/04/22 05:30:57;;;;;;;5.90;5.30;;;12.70;99.90;;;;;;4996673;28;20202;-65
2023/04/22 05:33:23;;;;;;;7.53;5.50;;;12.70;99.90;;;;;;4999634;28;20200;-65
2023/04/22 05:35:50;;;;;;;7.33;5.27;;;12.80;99.90;;;;;;5001451;28;20195;-65
2023/04/22 05:38:15;;;;;;;10.40;5.60;;;12.80;99.90;;;;;;5002159;28;20185;-66
2023/04/22 05:40:41;;;;;;;6.83;5.30;;;12.80;99.90;;;;;;5002445;28;20482;-65
2023/04/22 05:43:07;;;;;;;6.30;5.70;;;12.80;99.90;;;;;;5004155;28;20196;-65
2023/04/22 05:45:33;;;;;;;6.20;5.00;;;12.80;99.90;;;;;;4999979;28;20259;-65
2023/04/22 05:47:59;;;;;;;6.60;5.20;;;12.90;99.90;;;;;;5000473;28;21366;-64
2023/04/22 05:50:24;;;;;;;6.00;5.07;;;12.90;99.90;;;;;;4996164;28;20201;-65
2023/04/22 05:52:50;;;;;;;5.57;5.07;;;12.90;99.90;;;;;;4999170;28;20185;-65
2023/04/22 05:55:16;;;;;;;5.60;4.60;;;13.00;99.90;;;;;;4999882;28;20224;-65
2023/04/22 05:57:41;;;;;;;6.60;5.20;;;13.00;99.90;;;;;;4996671;28;20239;-65
2023/04/22 06:00:08;;;;;;;7.77;5.60;;;13.00;99.90;;;;;;5001129;28;20236;-65
2023/04/22 06:02:34;;;;;;;6.27;5.60;;;13.10;99.90;;;;;;5000982;28;20647;-64
2023/04/22 06:04:59;;;;;;;6.20;5.60;;;13.20;99.90;;;;;;5003064;28;20442;-65
2023/04/22 06:07:25;;;;;;;6.73;5.60;;;13.20;99.90;;;;;;4997986;28;20185;-65
2023/04/22 06:09:50;;;;;;;6.17;5.57;;;13.30;99.90;;;;;;5002036;28;20189;-65
2023/04/22 06:12:16;;;;;;;8.73;7.27;;;13.40;99.90;;;;;;5002399;28;20702;-65
2023/04/22 06:14:41;;;;;;;6.93;6.03;;;13.50;99.90;;;;;;4996495;28;20188;-65
2023/04/22 06:17:08;;;;;;;8.13;7.20;;;13.60;99.90;;;;;;5001215;28;20243;-65
2023/04/22 06:19:34;;;;;;;8.70;7.80;;;13.70;99.90;;;;;;5000087;28;20186;-65
2023/04/22 06:21:59;;;;;;;11.47;8.93;;;13.70;99.90;;;;;;4996945;28;20456;-66
2023/04/22 06:24:25;;;;;;;10.20;7.70;;;13.80;99.90;;;;;;4996137;28;20188;-65
2023/04/22 06:26:51;;;;;;;9.00;7.93;;;13.90;99.90;;;;;;5003203;28;20181;-66
2023/04/22 06:29:16;;;;;;;8.60;7.00;;;14.00;99.90;;;;;;4999673;28;20201;-65
2023/04/22 06:31:42;;;;;;;8.87;6.50;;;14.00;99.90;;;;;;5000043;28;21058;-66
2023/04/22 06:34:07;;;;;;;7.33;6.63;;;14.10;99.90;;;;;;4999287;28;20674;-66
2023/04/22 06:36:36;;;;;;;10.53;7.47;;;14.20;99.90;;;;;;5000522;28;20185;-66
2023/04/22 06:39:04;;;;;;;9.77;7.27;;;14.20;99.90;;;;;;4998858;28;20681;-66
2023/04/22 06:41:30;;;;;;;8.47;7.47;;;14.30;99.90;;;;;;4995611;28;20562;-66
2023/04/22 06:43:55;;;;;;;7.83;6.40;;;14.40;99.90;;;;;;5000142;28;20896;-66
2023/04/22 06:46:21;;;;;;;7.73;7.00;;;14.40;99.90;;;;;;5000202;28;20718;-66
2023/04/22 06:48:46;;;;;;;10.60;7.77;;;14.40;99.90;;;;;;4995101;28;20209;-66
2023/04/22 06:51:12;;;;;;;7.87;7.07;;;14.40;99.90;;;;;;5000431;28;20233;-66
2023/04/22 06:53:37;;;;;;;7.10;6.20;;;14.40;99.90;;;;;;4997657;28;20251;-66
2023/04/22 06:56:04;;;;;;;8.53;6.50;;;14.40;99.90;;;;;;5000262;28;20209;-66
2023/04/22 06:58:30;;;;;;;7.53;6.83;;;14.50;99.90;;;;;;4995168;28;20193;-66
2023/04/22 07:00:55;;;;;;;7.57;6.60;;;14.40;99.90;;;;;;4999221;28;20516;-66
2023/04/22 07:03:21;;;;;;;7.60;6.77;;;14.50;99.90;;;;;;5000234;28;20185;-66
2023/04/22 07:05:47;;;;;;;7.73;6.90;;;14.50;99.90;;;;;;4998988;28;20260;-66
2023/04/22 07:08:13;;;;;;;8.10;7.10;;;14.60;99.90;;;;;;5002111;28;20213;-66
2023/04/22 07:10:38;;;;;;;7.67;6.23;;;14.60;99.90;;;;;;5000433;28;20449;-65
2023/04/22 07:13:04;;;;;;;7.97;6.00;;;14.60;99.90;;;;;;5001468;28;20192;-66
2023/04/22 07:15:30;;;;;;;6.03;5.43;;;14.60;99.90;;;;;;5017913;28;20569;-66
2023/04/22 07:17:55;;;;;;;7.30;6.53;;;14.60;99.90;;;;;;5002255;28;20191;-66
2023/04/22 07:20:21;;;;;;;7.00;5.63;;;14.60;99.90;;;;;;4998489;28;20205;-65
2023/04/22 07:22:47;;;;;;;5.63;5.00;;;14.70;99.90;;;;;;4996148;28;20627;-66
2023/04/22 07:25:12;;;;;;;6.20;5.60;;;14.70;99.90;;;;;;5013774;28;20181;-66
2023/04/22 07:27:38;;;;;;;10.47;6.47;;;14.70;99.90;;;;;;4998380;28;20236;-67
2023/04/22 07:30:06;;;;;;;7.50;5.30;;;14.80;99.90;;;;;;4994042;28;20212;-66
2023/04/22 07:32:32;;;;;;;6.07;5.47;;;14.80;99.90;;;;;;4994824;28;20177;-66
2023/04/22 07:34:57;;;;;;;7.97;5.97;;;15.00;99.90;;;;;;4996283;28;20439;-66
2023/04/22 07:37:23;;;;;;;6.10;5.47;;;15.00;99.90;;;;;;4996781;28;20232;-66
2023/04/22 07:39:48;;;;;;;6.20;5.60;;;15.00;99.90;;;;;;5014538;28;20211;-65
2023/04/22 07:42:14;;;;;;;7.00;4.83;;;15.00;99.90;;;;;;4998775;28;20181;-65
2023/04/22 07:44:40;;;;;;;5.50;4.83;;;15.10;99.90;;;;;;4999108;28;20181;-65
2023/04/22 07:47:07;;;;;;;6.40;5.37;;;15.10;99.90;;;;;;4999598;28;20601;-65
2023/04/22 07:49:33;;;;;;;6.03;5.47;;;15.20;99.90;;;;;;4993684;28;20240;-67
2023/04/22 07:51:58;;;;;;;6.77;5.27;;;15.30;99.90;;;;;;4999835;28;20491;-66
2023/04/22 07:54:24;;;;;;;7.37;5.00;;;15.30;99.90;;;;;;4998958;28;20272;-66
2023/04/22 07:56:50;;;;;;;5.57;4.97;;;15.40;99.90;;;;;;4996088;28;20173;-65
2023/04/22 07:59:15;;;;;;;5.93;4.13;;;15.60;99.90;;;;;;4991387;28;20189;-65
2023/04/22 08:01:41;;;;;;;7.13;4.57;;;15.60;99.90;;;;;;4996797;28;20208;-68
2023/04/22 08:04:07;;;;;;;5.33;4.30;;;15.60;99.90;;;;;;4991927;28;20596;-66
2023/04/22 08:06:32;;;;;;;5.43;4.40;;;15.70;99.90;;;;;;4996013;28;20190;-66
2023/04/22 08:08:58;;;;;;;4.53;3.80;;;15.80;99.90;;;;;;4998285;28;20649;-65
2023/04/22 08:11:24;;;;;;;4.53;4.13;;;15.90;99.90;;;;;;4999568;28;20204;-65
2023/04/22 08:13:50;;;;;;;4.90;3.90;;;15.90;99.90;;;;;;4998791;28;20304;-64
2023/04/22 08:16:16;;;;;;;6.03;4.63;;;15.90;99.90;;;;;;4997943;28;20594;-64
2023/04/22 08:18:41;;;;;;;6.30;5.20;;;16.00;99.90;;;;;;4995071;28;20436;-64
2023/04/22 08:21:07;;;;;;;5.20;4.70;;;16.00;99.90;;;;;;4995231;28;20613;-65
2023/04/22 08:23:32;;;;;;;5.10;4.60;;;16.10;99.90;;;;;;4999015;28;20206;-65
2023/04/22 08:25:58;;;;;;;4.83;4.30;;;16.20;99.90;;;;;;4998996;28;20272;-65
2023/04/22 08:28:24;;;;;;;4.63;4.23;;;16.30;99.90;;;;;;4997429;28;20213;-65
2023/04/22 08:30:50;;;;;;;4.53;4.03;;;16.40;99.90;;;;;;4999335;28;20260;-65
2023/04/22 08:33:15;;;;;;;6.30;3.90;;;16.50;99.90;;;;;;4994219;28;20440;-66
2023/04/22 08:35:41;;;;;;;4.83;4.33;;;16.60;99.90;;;;;;4989747;28;20185;-66
2023/04/22 08:38:07;;;;;;;4.40;4.00;;;16.70;99.90;;;;;;4990194;28;20232;-66
2023/04/22 08:40:34;;;;;;;4.90;4.13;;;16.80;99.90;;;;;;4996550;28;20208;-65
2023/04/22 08:42:59;;;;;;;6.43;4.97;;;16.80;99.90;;;;;;4995344;28;20720;-65
2023/04/22 08:45:25;;;;;;;5.00;3.60;;;16.90;99.90;;;;;;4992203;28;20454;-65
2023/04/22 08:47:52;;;;;;;4.33;3.93;;;17.00;99.90;;;;;;4987119;28;20212;-67
2023/04/22 08:50:22;;;;;;;7.27;3.20;;;17.10;99.90;;;;;;4995281;28;20224;-66
2023/04/22 08:52:48;;;;;;;4.53;3.83;;;17.20;99.90;;;;;;4995012;28;20472;-66
2023/04/22 08:55:13;;;;;;;4.20;3.60;;;17.30;99.90;;;;;;4995457;28;20431;-66
2023/04/22 08:57:40;;;;;;;4.17;3.67;;;17.40;99.90;;;;;;4997048;28;20186;-67
2023/04/22 09:00:08;;;;;;;6.03;3.97;;;17.40;99.90;;;;;;4998915;28;20653;-67
2023/04/22 09:02:36;;;;;;;3.77;3.37;;;17.60;99.90;;;;;;5000854;28;20444;-67
2023/04/22 09:05:04;;;;;;;5.30;4.27;;;17.60;99.90;;;;;;5001391;28;20489;-67
2023/04/22 09:07:31;;;;;;;3.97;3.63;;;17.70;99.90;;;;;;4998941;28;20448;-67
2023/04/22 09:09:57;;;;;;;4.53;4.10;;;17.80;99.90;;;;;;5001264;28;20533;-68
2023/04/22 09:12:24;;;;;;;4.40;4.00;;;17.90;99.90;;;;;;5004412;28;20562;-67
2023/04/22 09:14:51;;;;;;;3.90;3.50;;;17.90;99.90;;;;;;4999481;28;20486;-68
2023/04/22 09:17:28;;;;;;;4.50;4.10;;;18.00;99.90;;;;;;5000769;28;20420;-67
2023/04/22 09:20:01;;;;;;;6.10;3.70;;;18.10;99.90;;;;;;5001810;28;20455;-67
2023/04/22 09:22:28;;;;;;;4.90;4.10;;;18.20;99.90;;;;;;4996581;28;20552;-66
2023/04/22 09:24:54;;;;;;;4.07;3.67;;;18.20;99.90;;;;;;4999455;28;21572;-67
2023/04/22 09:27:23;;;;;;;4.30;3.90;;;18.30;99.90;;;;;;5014793;28;20544;-67
2023/04/22 09:29:51;;;;;;;4.30;3.90;;;18.30;99.90;;;;;;4997913;28;20205;-68
2023/04/22 09:32:17;;;;;;;4.00;3.70;;;18.40;99.90;;;;;;4999039;28;20440;-69
2023/04/22 09:34:54;;;;;;;5.77;4.20;;;18.40;99.90;;;;;;5011456;28;20527;-69
2023/04/22 09:37:23;;;;;;;5.63;4.30;;;18.40;99.90;;;;;;4996383;28;20440;-69
2023/04/22 09:39:50;;;;;;;4.17;3.77;;;18.50;99.90;;;;;;4995292;28;20448;-69
2023/04/22 09:42:19;;;;;;;6.13;3.60;;;18.50;99.90;;;;;;4997525;28;20447;-69
2023/04/22 09:44:52;;;;;;;5.10;3.30;;;18.60;99.90;;;;;;4998923;28;20871;-69
2023/04/22 09:47:19;;;;;;;4.80;3.53;;;18.60;99.90;;;;;;4998298;28;20435;-68
2023/04/22 09:49:49;;;;;;;4.77;4.07;;;18.70;99.90;;;;;;4997635;28;20500;-71
2023/04/22 09:52:28;;;;;;;5.50;3.40;;;18.80;99.90;;;;;;4991632;28;20478;-66
2023/04/22 09:54:54;;;;;;;8.43;3.40;;;18.90;99.90;;;;;;4995864;28;20443;-67
2023/04/22 09:57:22;;;;;;;4.00;3.60;;;19.10;99.90;;;;;;4994740;28;20444;-67
2023/04/22 09:59:51;;;;;;;3.93;3.53;;;19.20;99.90;;;;;;5015296;28;20324;-67
2023/04/22 10:02:17;;;;;;;7.57;3.30;;;19.30;99.90;;;;;;4997011;28;20949;-67
2023/04/22 10:04:44;;;;;;;5.40;3.77;;;19.40;99.90;;;;;;4997996;28;20451;-68
2023/04/22 10:07:09;;;;;;;3.87;3.47;;;19.50;99.90;;;;;;4998619;28;20655;-68
2023/04/22 10:09:35;;;;;;;3.97;3.57;;;19.60;99.90;;;;;;4993805;28;20483;-68
2023/04/22 10:12:02;;;;;;;5.60;3.53;;;19.60;99.90;;;;;;4993993;28;20549;-68
2023/04/22 10:14:27;;;;;;;4.03;3.63;;;19.80;99.90;;;;;;4993958;28;20185;-65
2023/04/22 10:16:59;;;;;;;5.60;3.53;;;20.00;99.90;;;;;;4994121;28;20440;-67
2023/04/22 10:19:26;;;;;;;4.07;3.63;;;20.00;99.90;;;;;;4994194;28;20199;-68
2023/04/22 10:21:56;;;;;;;5.13;4.03;;;20.20;99.90;;;;;;4994788;28;20467;-68
2023/04/22 10:24:25;;;;;;;5.10;4.40;;;20.30;99.90;;;;;;4998771;28;20444;-67
2023/04/22 10:26:56;;;;;;;5.90;3.43;;;20.50;99.90;;;;;;4996025;28;21146;-67
2023/04/22 10:29:24;;;;;;;4.47;3.80;;;20.70;99.90;;;;;;4994768;28;20873;-68
2023/04/22 10:32:03;;;;;;;4.20;3.80;;;20.70;99.90;;;;;;4997676;28;20451;-67
2023/04/22 10:34:31;;;;;;;4.30;3.87;;;20.90;99.90;;;;;;4995939;28;20845;-68
2023/04/22 10:37:03;;;;;;;4.70;3.30;;;21.10;99.90;;;;;;4995402;28;20946;-66
2023/04/22 10:39:29;;;;;;;4.13;3.73;;;21.10;99.90;;;;;;4996586;28;20540;-69
2023/04/22 10:42:10;;;;;;;4.17;3.77;;;21.30;99.90;;;;;;4993972;28;20521;-68
2023/04/22 10:45:00;;;;;;;5.63;4.40;;;21.40;99.90;;;;;;4993879;28;20189;-67
2023/04/22 10:47:34;;;;;;;4.10;3.70;;;21.30;99.90;;;;;;4994265;28;20504;-67
2023/04/22 10:50:22;;;;;;;5.03;3.33;;;21.40;99.90;;;;;;5011812;28;20471;-67
2023/04/22 10:52:54;;;;;;;6.17;3.87;;;21.40;99.90;;;;;;4991197;28;21335;-68
2023/04/22 10:55:20;;;;;;;4.00;3.60;;;21.70;99.90;;;;;;4998846;28;20486;-66
2023/04/22 10:57:48;;;;;;;6.00;4.10;;;21.80;99.90;;;;;;5013825;28;20498;-66
2023/04/22 11:00:21;;;;;;;4.30;3.13;;;21.90;99.90;;;;;;4994587;28;20841;-66
2023/04/22 11:03:06;;;;;;;3.37;3.07;;;21.80;99.90;;;;;;5009499;28;20443;-66
2023/04/22 11:05:34;;;;;;;4.93;3.60;;;21.90;99.60;;;;;;4994387;28;20446;-67
2023/04/22 11:08:06;;;;;;;5.83;3.30;;;21.90;99.80;;;;;;4997077;28;20517;-67
2023/04/22 11:10:46;;;;;;;4.40;3.20;;;22.00;98.60;;;;;;4993966;28;20466;-67
2023/04/22 11:13:20;;;;;;;4.67;3.17;;;22.00;98.40;;;;;;4998121;28;20965;-67
2023/04/22 11:15:54;;;;;;;6.00;3.13;;;22.10;96.10;;;;;;4995844;28;21188;-67
2023/04/22 11:18:22;;;;;;;4.40;3.00;;;22.20;94.90;;;;;;4995651;28;20954;-68
2023/04/22 11:20:49;;;;;;;8.97;3.93;;;22.20;94.00;;;;;;4993425;28;20524;-67
2023/04/22 11:23:23;;;;;;;3.73;3.10;;;22.30;93.60;;;;;;4995678;28;20442;-67
2023/04/22 11:26:00;;;;;;;3.60;3.30;;;22.20;93.50;;;;;;4996295;28;20522;-67
2023/04/22 11:28:26;;;;;;;4.93;3.13;;;22.30;92.60;;;;;;4998001;28;20464;-67
2023/04/22 11:30:52;;;;;;;3.20;2.90;;;22.30;91.70;;;;;;5004233;28;20500;-67
2023/04/22 11:33:19;;;;;;;3.67;3.20;;;22.40;90.50;;;;;;4997053;28;20185;-67
2023/04/22 11:35:44;;;;;;;3.40;3.07;;;22.50;90.10;;;;;;4993653;28;20439;-67
2023/04/22 11:38:10;;;;;;;4.03;3.20;;;22.50;89.00;;;;;;4996993;28;20451;-68
2023/04/22 11:40:38;;;;;;;3.67;3.00;;;22.60;87.10;;;;;;4995139;28;20205;-66
2023/04/22 11:43:05;;;;;;;4.23;3.23;;;22.60;85.80;;;;;;4997358;28;20200;-68
2023/04/22 11:45:32;;;;;;;4.83;3.60;;;22.70;87.40;;;;;;4996587;28;20451;-67
2023/04/22 11:47:59;;;;;;;4.93;3.50;;;22.60;87.80;;;;;;4998514;28;20987;-67
2023/04/22 11:50:31;;;;;;;4.73;3.27;;;22.50;88.10;;;;;;4999911;28;21362;-67
2023/04/22 11:53:02;;;;;;;4.47;3.70;;;22.40;88.80;;;;;;4998216;28;20821;-66
2023/04/22 11:55:29;;;;;;;3.57;3.27;;;22.30;87.70;;;;;;4994407;28;20440;-67
2023/04/22 11:58:06;;;;;;;3.83;3.47;;;22.30;87.70;;;;;;4998112;28;20456;-67
2023/04/22 12:00:37;;;;;;;4.53;3.30;;;22.50;86.70;;;;;;4994895;28;21673;-68
2023/04/22 12:03:07;;;;;;;4.60;3.67;;;22.70;86.80;;;;;;4997189;28;20458;-67
2023/04/22 12:05:38;;;;;;;3.67;3.37;;;22.80;82.80;;;;;;4991491;28;20543;-67
2023/04/22 12:08:12;;;;;;;4.00;3.60;;;23.10;82.90;;;;;;4997170;28;20479;-70
2023/04/22 12:10:42;;;;;;;4.03;3.50;;;23.20;80.80;;;;;;4996126;28;20558;-67
2023/04/22 12:13:08;;;;;;;5.23;3.40;;;23.30;79.70;;;;;;4999292;28;20440;-67
2023/04/22 12:15:42;;;;;;;3.60;3.10;;;23.40;77.40;;;;;;5000619;28;20456;-67
2023/04/22 12:18:08;;;;;;;3.80;3.50;;;23.40;76.50;;;;;;4993643;28;20208;-68
2023/04/22 12:20:38;;;;;;;4.60;3.33;;;23.40;76.20;;;;;;4994446;28;20460;-67
2023/04/22 12:23:04;;;;;;;3.63;3.33;;;23.70;76.60;;;;;;5000342;28;20447;-67
2023/04/22 12:25:32;;;;;;;4.03;3.70;;;23.70;74.50;;;;;;4997902;28;20444;-67
2023/04/22 12:27:58;;;;;;;3.40;3.10;;;23.90;73.90;;;;;;4998215;28;20193;-67
2023/04/22 12:30:24;;;;;;;3.87;3.47;;;24.10;73.50;;;;;;4997435;28;20475;-67
2023/04/22 12:32:51;;;;;;;3.80;3.40;;;24.00;73.20;;;;;;4995895;28;20440;-67
2023/04/22 12:35:16;;;;;;;5.37;3.67;;;23.90;72.30;;;;;;5001180;28;20509;-67
2023/04/22 12:37:42;;;;;;;3.97;3.67;;;23.80;73.30;;;;;;5019532;28;20791;-67
2023/04/22 12:40:09;;;;;;;3.70;3.13;;;24.10;73.10;;;;;;5006363;28;20276;-67
2023/04/22 12:42:34;;;;;;;2.97;2.77;;;24.40;70.00;;;;;;5006243;28;20388;-67